Time;durP1;ratioP1;P1;durP2;ratioP2;P2;SDS_P1;SDS_P2;PMS_P1;PMS_P2;Temp;Humidity;BMP_temperature;BMP_pressure;BME280_temperature;BME280_humidity;BME280_pressure;Samples;Min_cycle;Max_cycle;Signal;HPM_P1;HPM_P2
2022/06/08 00:02:03;;;;;;;4.78;4.07;;;10.80;99.90;;;;;;5052922;28;20057;-65
2022/06/08 00:04:28;;;;;;;6.20;4.57;;;10.80;99.90;;;;;;5051740;28;20103;-64
2022/06/08 00:06:55;;;;;;;5.65;4.50;;;10.70;99.90;;;;;;5053129;28;20064;-63
2022/06/08 00:09:20;;;;;;;6.53;4.90;;;10.70;99.90;;;;;;5051822;28;20815;-64
2022/06/08 00:11:46;;;;;;;7.38;4.90;;;10.70;99.90;;;;;;5051788;28;20037;-64
2022/06/08 00:14:14;;;;;;;7.82;5.53;;;10.70;99.90;;;;;;5053189;28;20037;-65
2022/06/08 00:16:40;;;;;;;10.07;5.82;;;10.70;99.90;;;;;;5051868;28;20806;-65
2022/06/08 00:19:06;;;;;;;7.85;6.40;;;10.70;99.90;;;;;;5051869;28;20043;-65
2022/06/08 00:21:31;;;;;;;9.65;6.65;;;10.70;99.90;;;;;;5051461;28;20041;-65
2022/06/08 00:23:57;;;;;;;7.78;5.60;;;10.70;99.90;;;;;;5052944;28;20040;-65
2022/06/08 00:26:24;;;;;;;10.40;6.20;;;10.70;99.90;;;;;;5051344;28;20036;-64
2022/06/08 00:28:51;;;;;;;8.50;6.03;;;10.70;99.90;;;;;;5051485;28;20036;-65
2022/06/08 00:31:17;;;;;;;6.60;5.63;;;10.60;99.90;;;;;;5052853;28;20048;-65
2022/06/08 00:33:42;;;;;;;6.60;5.13;;;10.60;99.90;;;;;;5052571;28;20021;-66
2022/06/08 00:36:09;;;;;;;6.80;5.57;;;10.70;99.90;;;;;;5052468;28;20052;-64
2022/06/08 00:38:35;;;;;;;7.88;5.32;;;10.60;99.90;;;;;;5051083;28;20044;-66
2022/06/08 00:41:01;;;;;;;8.32;5.80;;;10.60;99.90;;;;;;5051337;28;20037;-63
2022/06/08 00:43:26;;;;;;;7.78;5.60;;;10.60;99.90;;;;;;5052445;28;20041;-64
2022/06/08 00:45:52;;;;;;;8.75;5.35;;;10.60;99.90;;;;;;5052512;28;20039;-64
2022/06/08 00:48:19;;;;;;;7.47;5.80;;;10.60;99.90;;;;;;5052606;28;20029;-63
2022/06/08 00:50:57;;;;;;;9.02;5.68;;;10.60;99.90;;;;;;5050901;28;20045;-63
2022/06/08 00:53:47;;;;;;;6.80;5.53;;;10.60;99.90;;;;;;5052463;28;20036;-64
2022/06/08 00:56:19;;;;;;;8.60;6.05;;;10.70;99.90;;;;;;5052382;28;20368;-64
2022/06/08 00:58:45;;;;;;;8.95;6.70;;;10.70;99.90;;;;;;5051199;28;20499;-64
2022/06/08 01:01:12;;;;;;;6.95;6.25;;;10.70;99.90;;;;;;5051740;28;20083;-63
2022/06/08 01:03:38;;;;;;;9.25;6.57;;;10.80;99.90;;;;;;5050961;28;20049;-64
2022/06/08 01:06:05;;;;;;;10.13;7.80;;;10.70;99.90;;;;;;5048100;28;20034;-63
2022/06/08 01:08:38;;;;;;;10.75;7.88;;;10.80;99.90;;;;;;5049793;28;20463;-64
2022/06/08 01:11:26;;;;;;;10.32;8.15;;;10.80;99.90;;;;;;5051557;28;20044;-66
2022/06/08 01:13:54;;;;;;;10.88;7.53;;;10.90;99.90;;;;;;5049249;28;20094;-64
2022/06/08 01:16:19;;;;;;;9.60;7.88;;;10.90;99.90;;;;;;5051602;28;20052;-65
2022/06/08 01:18:45;;;;;;;9.38;7.95;;;10.90;99.90;;;;;;5051376;28;20450;-64
2022/06/08 01:21:20;;;;;;;9.18;7.65;;;11.00;99.90;;;;;;5049945;28;20079;-65
2022/06/08 01:23:53;;;;;;;9.32;8.02;;;11.00;99.90;;;;;;5051188;28;20044;-65
2022/06/08 01:26:27;;;;;;;10.55;8.50;;;11.00;99.90;;;;;;5050323;28;20064;-66
2022/06/08 01:29:12;;;;;;;10.40;7.35;;;11.00;99.90;;;;;;5049732;28;20158;-64
2022/06/08 01:31:46;;;;;;;10.05;7.38;;;11.10;99.90;;;;;;5051063;28;20048;-65
2022/06/08 01:34:23;;;;;;;9.95;7.40;;;11.10;99.90;;;;;;5051381;28;20119;-66
2022/06/08 01:37:09;;;;;;;10.43;7.50;;;11.10;99.90;;;;;;5050902;28;20044;-64
2022/06/08 01:40:02;;;;;;;9.15;7.05;;;11.20;99.90;;;;;;5051224;28;20059;-64
2022/06/08 01:42:36;;;;;;;8.65;7.05;;;11.20;99.90;;;;;;5051178;28;20041;-65
2022/06/08 01:45:29;;;;;;;10.20;8.00;;;11.20;99.90;;;;;;5051203;28;20041;-66
2022/06/08 01:48:28;;;;;;;8.73;6.07;;;11.30;99.90;;;;;;5051159;28;20029;-65
2022/06/08 01:51:08;;;;;;;11.70;7.32;;;11.30;99.90;;;;;;5051113;28;20045;-65
2022/06/08 01:53:55;;;;;;;11.73;8.30;;;11.40;99.90;;;;;;5051231;28;20067;-65
2022/06/08 01:56:27;;;;;;;12.80;8.18;;;11.40;99.90;;;;;;5051164;28;20041;-64
2022/06/08 01:59:17;;;;;;;10.85;8.10;;;11.50;99.90;;;;;;5051067;28;20037;-63
2022/06/08 02:01:49;;;;;;;14.80;8.70;;;11.50;99.90;;;;;;5049231;28;20110;-65
2022/06/08 02:04:36;;;;;;;10.43;8.38;;;11.50;99.90;;;;;;5049669;28;20132;-64
2022/06/08 02:07:23;;;;;;;15.70;8.65;;;11.50;99.90;;;;;;5050718;28;20049;-65
2022/06/08 02:10:16;;;;;;;11.32;8.68;;;11.60;99.90;;;;;;5049521;28;20040;-65
2022/06/08 02:12:44;;;;;;;;;;;11.60;99.90;;;;;;5051467;28;20388;-65
2022/06/08 02:15:16;;;;;;;16.23;9.15;;;11.60;99.90;;;;;;5049511;28;19921;-65
2022/06/08 02:17:53;;;;;;;12.73;9.25;;;11.60;99.90;;;;;;5047210;28;20037;-65
2022/06/08 02:20:37;;;;;;;11.02;9.50;;;11.70;99.90;;;;;;5049220;28;20037;-66
2022/06/08 02:23:21;;;;;;;12.90;9.88;;;11.70;99.90;;;;;;5050705;28;20029;-65
2022/06/08 02:25:54;;;;;;;11.80;8.52;;;11.70;99.90;;;;;;5049512;28;20048;-64
2022/06/08 02:28:30;;;;;;;16.38;10.27;;;11.70;99.90;;;;;;5049494;28;20041;-65
2022/06/08 02:31:21;;;;;;;13.98;10.70;;;11.70;99.90;;;;;;5049121;28;20044;-65
2022/06/08 02:34:33;;;;;;;12.15;9.50;;;11.80;99.90;;;;;;5047344;28;20056;-65
2022/06/08 02:37:08;;;;;;;15.77;10.32;;;11.80;99.90;;;;;;5049093;28;20044;-66
2022/06/08 02:39:40;;;;;;;13.40;9.82;;;11.80;99.90;;;;;;5050409;28;20048;-64
2022/06/08 02:42:12;;;;;;;12.35;9.57;;;11.80;99.90;;;;;;5050392;28;20045;-66
2022/06/08 02:44:40;;;;;;;15.60;10.35;;;11.80;99.90;;;;;;5050559;28;20043;-64
2022/06/08 02:47:32;;;;;;;16.23;10.40;;;11.90;99.90;;;;;;5032321;28;20052;-64
2022/06/08 02:50:01;;;;;;;15.73;10.25;;;11.90;99.90;;;;;;5048949;28;20029;-63
2022/06/08 02:52:28;;;;;;;14.20;10.27;;;11.90;99.90;;;;;;5049065;28;20057;-64
2022/06/08 02:54:54;;;;;;;13.50;11.00;;;11.90;99.90;;;;;;5049110;28;20048;-63
2022/06/08 02:57:44;;;;;;;12.25;10.45;;;11.90;99.90;;;;;;5047546;28;20044;-65
2022/06/08 03:00:17;;;;;;;12.20;9.75;;;11.90;99.90;;;;;;5049219;28;20053;-64
2022/06/08 03:02:48;;;;;;;13.30;10.45;;;12.00;99.90;;;;;;5048386;28;20053;-66
2022/06/08 03:05:17;;;;;;;13.35;10.35;;;12.00;99.90;;;;;;5049125;28;20489;-64
2022/06/08 03:07:56;;;;;;;12.65;10.05;;;12.00;99.90;;;;;;5049838;28;20033;-65
2022/06/08 03:10:26;;;;;;;14.32;10.85;;;12.00;99.90;;;;;;5049006;28;20049;-65
2022/06/08 03:13:00;;;;;;;13.85;10.10;;;12.00;99.90;;;;;;5032236;28;20060;-65
2022/06/08 03:15:26;;;;;;;13.48;9.82;;;12.00;99.90;;;;;;5050103;28;20083;-64
2022/06/08 03:17:52;;;;;;;12.20;10.02;;;12.00;99.90;;;;;;5048328;28;20076;-65
2022/06/08 03:20:21;;;;;;;14.10;10.13;;;12.00;99.90;;;;;;5048221;28;20400;-65
2022/06/08 03:22:47;;;;;;;16.00;10.90;;;12.10;99.90;;;;;;5048353;28;20068;-64
2022/06/08 03:25:14;;;;;;;11.27;9.98;;;12.10;99.90;;;;;;5049754;28;20033;-63
2022/06/08 03:27:42;;;;;;;13.95;10.93;;;12.10;99.90;;;;;;5053638;28;20037;-65
2022/06/08 03:30:09;;;;;;;16.00;11.85;;;12.20;99.90;;;;;;5053166;28;20048;-64
2022/06/08 03:32:35;;;;;;;17.10;11.50;;;12.20;99.90;;;;;;5053536;28;20045;-65
2022/06/08 03:35:00;;;;;;;17.02;11.77;;;12.20;99.90;;;;;;5053789;28;20036;-64
2022/06/08 03:37:26;;;;;;;18.90;12.65;;;12.20;99.90;;;;;;5036090;28;20139;-64
2022/06/08 03:39:52;;;;;;;16.08;11.88;;;12.20;99.90;;;;;;5052277;28;20044;-64
2022/06/08 03:42:18;;;;;;;16.35;12.13;;;12.30;99.90;;;;;;5052164;28;20040;-65
2022/06/08 03:44:45;;;;;;;17.27;12.20;;;12.30;99.90;;;;;;5053694;28;20119;-66
2022/06/08 03:47:24;;;;;;;18.42;12.05;;;12.40;99.90;;;;;;5052245;28;20116;-65
2022/06/08 03:49:52;;;;;;;17.80;12.55;;;12.40;99.90;;;;;;5052139;28;20462;-66
2022/06/08 03:52:22;;;;;;;16.00;12.65;;;12.40;99.90;;;;;;5053135;28;20130;-66
2022/06/08 03:54:53;;;;;;;17.23;12.23;;;12.40;99.90;;;;;;5053329;28;20424;-65
2022/06/08 03:57:20;;;;;;;18.58;13.85;;;12.50;99.90;;;;;;5053327;28;20040;-66
2022/06/08 03:59:47;;;;;;;14.80;12.30;;;12.50;99.90;;;;;;5051931;28;20387;-66
2022/06/08 04:02:14;;;;;;;19.08;13.65;;;12.50;99.90;;;;;;5052890;28;20056;-65
2022/06/08 04:04:41;;;;;;;18.65;14.35;;;12.50;99.90;;;;;;5051856;28;20449;-65
2022/06/08 04:07:07;;;;;;;21.15;14.27;;;12.60;99.90;;;;;;5051900;28;20055;-63
2022/06/08 04:09:33;;;;;;;18.20;12.75;;;12.60;99.90;;;;;;5053169;28;20480;-65
2022/06/08 04:11:59;;;;;;;18.77;13.93;;;12.60;99.90;;;;;;5051910;28;20029;-66
2022/06/08 04:14:24;;;;;;;17.15;13.60;;;12.60;99.90;;;;;;5051610;28;20136;-65
2022/06/08 04:16:51;;;;;;;19.77;14.38;;;12.60;99.90;;;;;;5051655;28;20511;-65
2022/06/08 04:19:18;;;;;;;21.35;14.55;;;12.60;99.90;;;;;;5052739;28;20044;-64
2022/06/08 04:21:45;;;;;;;22.88;15.35;;;12.70;99.90;;;;;;5052724;28;20041;-66
2022/06/08 04:24:13;;;;;;;19.77;14.77;;;12.70;99.90;;;;;;5051553;28;20033;-65
2022/06/08 04:26:38;;;;;;;19.60;14.95;;;12.70;99.90;;;;;;5052831;28;20458;-64
2022/06/08 04:29:06;;;;;;;20.55;14.98;;;12.70;99.90;;;;;;5052689;28;20112;-65
2022/06/08 04:31:34;;;;;;;17.73;13.85;;;12.70;99.90;;;;;;5052705;28;20052;-64
2022/06/08 04:34:01;;;;;;;22.65;15.15;;;12.80;99.90;;;;;;5051608;28;20500;-66
2022/06/08 04:36:27;;;;;;;21.65;16.30;;;12.80;99.90;;;;;;5051378;28;20430;-65
2022/06/08 04:38:53;;;;;;;20.58;16.05;;;12.80;99.90;;;;;;5052658;28;20045;-67
2022/06/08 04:41:19;;;;;;;19.90;14.70;;;12.90;99.90;;;;;;5051126;28;20052;-66
2022/06/08 04:43:45;;;;;;;24.50;16.05;;;12.90;99.90;;;;;;5052605;28;20040;-65
2022/06/08 04:46:17;;;;;;;18.67;14.98;;;13.00;99.90;;;;;;5051188;28;20476;-65
2022/06/08 04:48:45;;;;;;;20.13;16.10;;;13.00;99.90;;;;;;5049565;28;20062;-65
2022/06/08 04:51:12;;;;;;;19.73;16.17;;;13.10;99.90;;;;;;5050776;28;20048;-65
2022/06/08 04:53:38;;;;;;;19.92;15.90;;;13.10;99.90;;;;;;5051929;28;20045;-66
2022/06/08 04:56:05;;;;;;;20.10;14.82;;;13.20;99.90;;;;;;5051785;28;20051;-64
2022/06/08 04:58:30;;;;;;;21.52;15.43;;;13.30;99.90;;;;;;5052088;28;20078;-65
2022/06/08 05:00:56;;;;;;;19.63;14.07;;;13.30;99.90;;;;;;5051535;28;20068;-64
2022/06/08 05:03:22;;;;;;;18.73;14.15;;;13.40;99.90;;;;;;5052140;28;20037;-66
2022/06/08 05:05:48;;;;;;;19.42;15.43;;;13.50;99.90;;;;;;5051712;28;20040;-65
2022/06/08 05:08:17;;;;;;;21.48;15.50;;;13.50;99.90;;;;;;5050167;28;20033;-64
2022/06/08 05:10:43;;;;;;;21.38;15.13;;;13.60;99.90;;;;;;5051519;28;20052;-65
2022/06/08 05:13:10;;;;;;;17.67;13.48;;;13.60;99.90;;;;;;5051884;28;20048;-65
2022/06/08 05:15:39;;;;;;;18.80;15.07;;;13.60;99.90;;;;;;5051343;28;20384;-64
2022/06/08 05:18:05;;;;;;;18.15;14.60;;;13.70;99.90;;;;;;5050482;28;20352;-64
2022/06/08 05:20:34;;;;;;;20.23;14.75;;;13.80;99.90;;;;;;5051451;28;20071;-65
2022/06/08 05:23:01;;;;;;;17.67;15.00;;;13.80;99.90;;;;;;5051902;28;20377;-64
2022/06/08 05:25:34;;;;;;;23.30;16.35;;;13.90;99.90;;;;;;5051815;28;20042;-66
2022/06/08 05:28:00;;;;;;;21.95;15.43;;;14.00;99.90;;;;;;5051592;28;20041;-66
2022/06/08 05:30:26;;;;;;;17.55;15.63;;;14.00;99.90;;;;;;5050428;28;20045;-66
2022/06/08 05:32:53;;;;;;;19.40;15.07;;;14.10;99.90;;;;;;5050355;28;20033;-65
2022/06/08 05:35:19;;;;;;;18.10;15.20;;;14.10;99.90;;;;;;5051460;28;20431;-66
2022/06/08 05:37:46;;;;;;;18.65;15.88;;;14.20;99.90;;;;;;5051283;28;20029;-66
2022/06/08 05:40:12;;;;;;;19.48;14.60;;;14.20;99.90;;;;;;5051456;28;20108;-66
2022/06/08 05:42:38;;;;;;;23.75;14.52;;;14.20;99.90;;;;;;5051105;28;20060;-66
2022/06/08 05:45:06;;;;;;;20.52;14.80;;;14.20;99.90;;;;;;5051691;28;20033;-65
2022/06/08 05:47:32;;;;;;;19.73;14.88;;;14.20;99.90;;;;;;5051380;28;20037;-64
2022/06/08 05:49:57;;;;;;;20.58;15.10;;;14.30;99.90;;;;;;5049390;28;20093;-66
2022/06/08 05:52:23;;;;;;;16.83;13.95;;;14.30;99.90;;;;;;5051265;28;20040;-64
2022/06/08 05:54:49;;;;;;;21.92;15.27;;;14.40;99.90;;;;;;5050111;28;20577;-64
2022/06/08 05:57:15;;;;;;;19.85;15.20;;;14.40;99.90;;;;;;5050961;28;20080;-66
2022/06/08 05:59:41;;;;;;;19.88;15.00;;;14.50;99.90;;;;;;5051092;28;20043;-65
2022/06/08 06:02:10;;;;;;;17.92;14.52;;;14.60;99.90;;;;;;5049727;28;20154;-65
2022/06/08 06:04:36;;;;;;;18.17;15.57;;;14.80;99.90;;;;;;5051135;28;20029;-67
2022/06/08 06:07:01;;;;;;;20.42;15.75;;;15.00;99.90;;;;;;5050968;28;20036;-64
2022/06/08 06:09:27;;;;;;;19.15;15.93;;;15.10;99.90;;;;;;5049472;28;20060;-65
2022/06/08 06:11:53;;;;;;;19.20;14.93;;;15.20;99.90;;;;;;5050744;28;20483;-63
2022/06/08 06:14:19;;;;;;;19.90;15.35;;;15.30;99.90;;;;;;5050788;28;20041;-64
2022/06/08 06:16:45;;;;;;;22.00;16.23;;;15.30;99.90;;;;;;5050681;28;20112;-64
2022/06/08 06:19:10;;;;;;;18.75;15.45;;;15.50;99.90;;;;;;5049496;28;20115;-66
2022/06/08 06:21:37;;;;;;;20.17;16.40;;;15.90;99.90;;;;;;5050894;28;20458;-65
2022/06/08 06:24:04;;;;;;;17.35;14.57;;;16.20;99.90;;;;;;5050643;28;20028;-64
2022/06/08 06:26:31;;;;;;;16.02;14.27;;;16.30;99.90;;;;;;5050569;28;20041;-65
2022/06/08 06:29:00;;;;;;;17.45;14.27;;;16.40;99.90;;;;;;5049504;28;20033;-66
2022/06/08 06:31:39;;;;;;;17.80;13.73;;;16.60;99.90;;;;;;5050709;28;20047;-65
2022/06/08 06:34:05;;;;;;;16.90;12.93;;;16.80;99.90;;;;;;5050668;28;20122;-65
2022/06/08 06:36:31;;;;;;;14.50;11.80;;;17.00;99.90;;;;;;5050580;28;20086;-65
2022/06/08 06:38:57;;;;;;;15.77;11.85;;;17.30;99.90;;;;;;5047835;28;20480;-65
2022/06/08 06:41:22;;;;;;;13.05;11.60;;;17.40;99.90;;;;;;5049491;28;20098;-64
2022/06/08 06:43:48;;;;;;;13.18;10.57;;;17.60;99.90;;;;;;5048788;28;20033;-64
2022/06/08 06:46:15;;;;;;;14.23;10.90;;;17.60;99.90;;;;;;5048811;28;20094;-64
2022/06/08 06:48:41;;;;;;;11.82;9.80;;;17.60;99.90;;;;;;5048903;28;20041;-65
2022/06/08 06:51:07;;;;;;;13.38;9.38;;;17.60;99.90;;;;;;5048911;28;20097;-65
2022/06/08 06:53:34;;;;;;;10.20;8.10;;;17.50;99.90;;;;;;5048991;28;20045;-65
2022/06/08 06:55:59;;;;;;;12.40;9.63;;;17.50;99.90;;;;;;5049891;28;20025;-65
2022/06/08 06:58:25;;;;;;;11.85;7.97;;;17.40;99.90;;;;;;5049996;28;20507;-66
2022/06/08 07:00:51;;;;;;;9.45;8.50;;;17.40;99.90;;;;;;5051643;28;20045;-65
2022/06/08 07:03:16;;;;;;;12.07;9.07;;;17.30;99.90;;;;;;5049950;28;20098;-66
2022/06/08 07:05:43;;;;;;;10.00;7.40;;;17.30;99.90;;;;;;5054302;28;20047;-64
2022/06/08 07:08:08;;;;;;;10.75;7.70;;;17.30;99.90;;;;;;5054011;28;20037;-65
2022/06/08 07:10:34;;;;;;;11.05;7.90;;;17.30;99.90;;;;;;5053687;28;20498;-64
2022/06/08 07:13:00;;;;;;;8.30;7.50;;;17.30;99.90;;;;;;5052609;28;20450;-63
2022/06/08 07:15:26;;;;;;;9.93;7.93;;;17.40;99.90;;;;;;5053077;28;20041;-65
2022/06/08 07:17:53;;;;;;;8.45;7.55;;;17.50;99.90;;;;;;5054354;28;20044;-64
2022/06/08 07:20:19;;;;;;;8.27;7.35;;;17.60;99.90;;;;;;5054096;28;20043;-65
2022/06/08 07:22:46;;;;;;;12.57;7.65;;;17.80;99.90;;;;;;5053894;28;20414;-64
2022/06/08 07:25:13;;;;;;;8.38;7.35;;;17.80;99.90;;;;;;5053992;28;20041;-65
2022/06/08 07:27:40;;;;;;;7.40;6.03;;;18.00;99.90;;;;;;5052792;28;20041;-65
2022/06/08 07:30:07;;;;;;;12.75;5.65;;;18.20;99.90;;;;;;5053857;28;20059;-66
2022/06/08 07:32:34;;;;;;;6.38;5.20;;;18.30;99.90;;;;;;5052856;28;20095;-66
2022/06/08 07:35:02;;;;;;;7.50;4.93;;;18.60;99.90;;;;;;5052430;28;20048;-65
2022/06/08 07:37:28;;;;;;;7.20;5.43;;;18.60;99.90;;;;;;5053639;28;20053;-64
2022/06/08 07:39:53;;;;;;;9.35;5.78;;;18.70;99.90;;;;;;5053863;28;20039;-66
2022/06/08 07:42:19;;;;;;;8.43;5.55;;;18.80;99.90;;;;;;5052163;28;20036;-65
2022/06/08 07:44:45;;;;;;;8.35;5.35;;;18.80;99.90;;;;;;5052440;28;20114;-63
2022/06/08 07:47:11;;;;;;;6.63;5.25;;;18.70;99.90;;;;;;5053531;28;20163;-66
2022/06/08 07:49:37;;;;;;;8.27;4.70;;;18.80;99.90;;;;;;5053593;28;20058;-66
2022/06/08 07:52:16;;;;;;;8.45;5.25;;;18.90;99.90;;;;;;5053457;28;20112;-65
2022/06/08 07:54:42;;;;;;;5.60;4.63;;;19.00;99.90;;;;;;5052348;28;20045;-64
2022/06/08 07:57:17;;;;;;;8.23;4.55;;;19.20;99.90;;;;;;5051880;28;20049;-65
2022/06/08 07:59:43;;;;;;;7.20;5.25;;;19.40;99.90;;;;;;5053626;28;20056;-65
2022/06/08 08:02:10;;;;;;;8.38;5.55;;;19.50;99.90;;;;;;5051588;28;20051;-65
2022/06/08 08:04:36;;;;;;;8.35;5.35;;;19.70;99.90;;;;;;5051977;28;20043;-65
2022/06/08 08:07:03;;;;;;;7.65;4.85;;;19.70;99.90;;;;;;5053296;28;20392;-66
2022/06/08 08:09:31;;;;;;;8.63;5.18;;;19.90;99.90;;;;;;5052062;28;20037;-65
2022/06/08 08:11:57;;;;;;;5.97;5.35;;;20.00;99.90;;;;;;5051449;28;20514;-63
2022/06/08 08:14:24;;;;;;;5.82;5.00;;;20.10;99.90;;;;;;5051705;28;20036;-64
2022/06/08 08:16:50;;;;;;;5.95;5.05;;;20.10;99.90;;;;;;5051645;28;20129;-65
2022/06/08 08:19:18;;;;;;;6.32;5.55;;;20.20;99.90;;;;;;5052950;28;20690;-66
2022/06/08 08:21:45;;;;;;;7.75;5.78;;;20.30;99.90;;;;;;5053127;28;20083;-64
2022/06/08 08:24:10;;;;;;;6.70;5.25;;;20.40;99.90;;;;;;5053164;28;20033;-66
2022/06/08 08:26:36;;;;;;;6.65;4.75;;;20.50;99.90;;;;;;5051637;28;20530;-65
2022/06/08 08:29:04;;;;;;;7.32;4.60;;;20.60;99.90;;;;;;5052918;28;20456;-64
2022/06/08 08:31:30;;;;;;;6.00;4.72;;;20.50;99.90;;;;;;5047796;28;20145;-65
2022/06/08 08:33:55;;;;;;;5.32;4.80;;;20.40;99.90;;;;;;5052673;28;20029;-64
2022/06/08 08:36:21;;;;;;;5.70;5.07;;;20.30;99.90;;;;;;5052118;28;20037;-64
2022/06/08 08:38:47;;;;;;;5.57;4.35;;;20.40;99.90;;;;;;5051036;28;20033;-65
2022/06/08 08:44:11;;;;;;;10.68;3.67;;;20.70;99.90;;;;;;5050679;28;20053;-66
2022/06/08 08:46:55;;;;;;;6.88;3.60;;;20.90;99.90;;;;;;5050760;28;20041;-64
2022/06/08 08:49:23;;;;;;;4.07;3.13;;;21.10;99.90;;;;;;5050834;28;20480;-65
2022/06/08 08:52:18;;;;;;;3.10;2.28;;;21.40;99.90;;;;;;5052158;28;20536;-64
2022/06/08 08:54:54;;;;;;;5.32;2.17;;;21.60;99.90;;;;;;5052250;28;20835;-66
2022/06/08 08:57:37;;;;;;;4.97;2.20;;;21.60;99.90;;;;;;5050887;28;20502;-66
2022/06/08 09:00:16;;;;;;;3.42;3.13;;;21.80;99.90;;;;;;5051888;28;20090;-66
2022/06/08 09:05:28;;;;;;;3.80;3.40;;;21.50;99.90;;;;;;5052112;28;20049;-66
2022/06/08 09:07:54;;;;;;;4.63;3.20;;;21.20;99.90;;;;;;5052099;28;20059;-65
2022/06/08 09:10:23;;;;;;;4.40;4.00;;;21.10;99.90;;;;;;5052081;28;20098;-65
2022/06/08 09:12:50;;;;;;;4.32;3.70;;;21.30;99.90;;;;;;5051073;28;20387;-65
2022/06/08 09:15:18;;;;;;;5.65;3.38;;;21.50;99.90;;;;;;5050969;28;20052;-64
2022/06/08 09:17:56;;;;;;;4.15;2.85;;;21.70;99.90;;;;;;5051019;28;20520;-65
2022/06/08 09:20:33;;;;;;;4.50;3.13;;;21.90;99.90;;;;;;5052024;28;20108;-65
2022/06/08 09:23:20;;;;;;;5.22;3.13;;;21.90;99.90;;;;;;5051131;28;20051;-66
2022/06/08 09:25:59;;;;;;;4.07;2.80;;;22.00;99.90;;;;;;5051798;28;20033;-66
2022/06/08 09:28:28;;;;;;;3.90;2.38;;;22.00;99.90;;;;;;5050572;28;20053;-66
2022/06/08 09:30:54;;;;;;;3.22;2.10;;;21.80;99.90;;;;;;5050449;28;20052;-64
2022/06/08 09:33:31;;;;;;;4.20;1.70;;;21.90;99.90;;;;;;5051610;28;20396;-64
2022/06/08 09:36:01;;;;;;;3.92;2.17;;;21.90;99.90;;;;;;5050285;28;20079;-65
2022/06/08 09:38:32;;;;;;;2.25;1.50;;;21.80;99.90;;;;;;5051549;28;20048;-64
2022/06/08 09:41:06;;;;;;;3.50;1.50;;;21.70;99.90;;;;;;5051645;28;20045;-65
2022/06/08 09:44:07;;;;;;;1.90;1.52;;;21.50;99.90;;;;;;5051282;28;20045;-65
2022/06/08 09:52:55;;;;;;;4.82;2.25;;;21.50;99.90;;;;;;5051071;28;20049;-65
2022/06/08 09:55:55;;;;;;;2.90;2.05;;;21.60;99.90;;;;;;5050074;28;20412;-65
2022/06/08 09:58:39;;;;;;;3.53;2.25;;;21.60;99.90;;;;;;5051240;28;20051;-68
2022/06/08 10:01:30;;;;;;;4.25;2.10;;;21.60;99.90;;;;;;5049766;28;20049;-64
2022/06/08 10:04:35;;;;;;;3.13;1.98;;;21.70;99.90;;;;;;5050942;28;20044;-65
2022/06/08 10:07:19;;;;;;;5.47;2.72;;;21.80;99.90;;;;;;5050074;28;20559;-66
2022/06/08 10:10:13;;;;;;;4.63;2.78;;;21.80;99.90;;;;;;5049545;28;20037;-65
2022/06/08 10:12:59;;;;;;;3.28;2.50;;;21.70;99.90;;;;;;5049641;28;20049;-67
2022/06/08 10:15:30;;;;;;;4.90;3.28;;;21.60;99.90;;;;;;5049889;28;20549;-65
2022/06/08 10:18:11;;;;;;;5.32;2.90;;;21.60;99.90;;;;;;5050667;28;20051;-66
2022/06/08 10:21:01;;;;;;;4.30;2.80;;;21.80;99.90;;;;;;5050676;28;20033;-65
2022/06/08 10:23:44;;;;;;;4.13;2.35;;;21.90;99.90;;;;;;5047662;28;20033;-67
2022/06/08 10:26:34;;;;;;;4.68;2.80;;;22.00;99.90;;;;;;5050210;28;20040;-66
2022/06/08 10:29:13;;;;;;;6.50;3.05;;;22.10;99.90;;;;;;5050261;28;20048;-65
2022/06/08 10:31:42;;;;;;;6.55;3.20;;;22.10;99.90;;;;;;5049357;28;20045;-66
2022/06/08 10:34:18;;;;;;;5.03;3.55;;;22.10;99.90;;;;;;5050064;28;20037;-65
2022/06/08 10:36:49;;;;;;;4.88;3.47;;;22.10;99.90;;;;;;5049524;28;20475;-66
2022/06/08 10:39:15;;;;;;;4.85;3.20;;;22.00;99.90;;;;;;5048812;28;20529;-65
2022/06/08 10:44:50;;;;;;;5.93;3.75;;;21.90;99.90;;;;;;5048710;28;20052;-66
2022/06/08 10:47:28;;;;;;;4.85;3.75;;;21.70;99.90;;;;;;5050247;28;20052;-66
2022/06/08 10:50:01;;;;;;;4.28;3.60;;;21.60;99.90;;;;;;5049166;28;20116;-65
2022/06/08 10:52:37;;;;;;;4.15;2.75;;;21.50;99.90;;;;;;5049793;28;20036;-65
2022/06/08 10:55:17;;;;;;;5.85;3.22;;;21.30;99.90;;;;;;5049251;28;20041;-64
2022/06/08 10:57:49;;;;;;;4.90;2.25;;;21.00;99.90;;;;;;5049218;28;20087;-64
2022/06/08 11:00:18;;;;;;;4.28;2.60;;;21.00;99.90;;;;;;5050773;28;20037;-65
2022/06/08 11:03:02;;;;;;;5.97;2.50;;;21.10;99.90;;;;;;5050286;28;20471;-66
2022/06/08 11:05:44;;;;;;;3.63;2.40;;;21.10;99.90;;;;;;5050157;28;20040;-65
2022/06/08 11:08:18;;;;;;;3.13;2.25;;;21.10;99.90;;;;;;5050569;28;20036;-64
2022/06/08 11:10:44;;;;;;;4.47;2.53;;;21.10;99.90;;;;;;5050168;28;20037;-66
2022/06/08 11:13:24;;;;;;;4.50;2.58;;;21.20;99.90;;;;;;5049020;28;20128;-65
2022/06/08 11:15:53;;;;;;;3.50;2.30;;;21.30;99.90;;;;;;5050150;28;20044;-65
2022/06/08 11:18:37;;;;;;;5.07;2.70;;;21.40;99.90;;;;;;5048923;28;20090;-65
2022/06/08 11:21:15;;;;;;;4.55;2.75;;;21.50;99.90;;;;;;5050263;28;20047;-66
2022/06/08 11:23:54;;;;;;;6.28;2.45;;;21.40;99.90;;;;;;5050043;28;20041;-66
2022/06/08 11:26:25;;;;;;;4.00;1.20;;;21.20;99.90;;;;;;5050198;28;20040;-65
2022/06/08 11:29:00;;;;;;;6.35;1.08;;;20.50;99.90;;;;;;5048738;28;20052;-66
2022/06/08 11:31:29;;;;;;;5.70;1.30;;;19.50;99.90;;;;;;5050396;28;20438;-66
2022/06/08 11:34:12;;;;;;;4.47;1.10;;;19.00;99.90;;;;;;5048835;28;20045;-66
2022/06/08 11:37:06;;;;;;;7.45;1.42;;;18.40;99.90;;;;;;5031951;28;20127;-65
2022/06/08 11:39:47;;;;;;;6.25;0.93;;;17.90;99.90;;;;;;5050018;28;20052;-65
2022/06/08 11:42:38;;;;;;;4.80;1.10;;;17.40;99.90;;;;;;5049979;28;20079;-65
2022/06/08 11:45:34;;;;;;;4.63;1.20;;;17.20;99.90;;;;;;5050062;28;20037;-65
2022/06/08 11:48:06;;;;;;;4.65;1.50;;;16.90;99.90;;;;;;5052732;28;20286;-65
2022/06/08 11:50:43;;;;;;;7.93;2.03;;;16.80;99.90;;;;;;5052442;28;20083;-64
2022/06/08 11:53:35;;;;;;;8.50;2.95;;;16.80;99.90;;;;;;5053488;28;20049;-66
2022/06/08 11:56:09;;;;;;;5.28;2.00;;;16.80;99.90;;;;;;5052416;28;20178;-66
2022/06/08 11:58:36;;;;;;;6.20;2.15;;;16.80;99.90;;;;;;5053400;28;20037;-65
2022/06/08 12:01:17;;;;;;;4.40;1.80;;;16.80;99.90;;;;;;5051704;28;20049;-64
2022/06/08 12:03:48;;;;;;;7.55;1.80;;;16.80;99.90;;;;;;5053207;28;20449;-65
2022/06/08 12:06:14;;;;;;;4.47;1.95;;;16.70;99.90;;;;;;5052046;28;20059;-66
2022/06/08 12:08:54;;;;;;;5.88;1.70;;;16.70;99.90;;;;;;5051976;28;20041;-64
2022/06/08 12:11:24;;;;;;;4.25;1.80;;;16.60;99.90;;;;;;5053402;28;20072;-65
2022/06/08 12:14:15;;;;;;;5.47;2.08;;;16.60;99.90;;;;;;5049982;28;20242;-65
2022/06/08 12:16:59;;;;;;;2.95;1.55;;;16.60;99.90;;;;;;5050217;28;20083;-66
2022/06/08 12:19:29;;;;;;;3.38;2.17;;;16.70;99.90;;;;;;5052730;28;20048;-66
2022/06/08 12:22:14;;;;;;;4.00;1.85;;;16.80;99.90;;;;;;5052563;28;20988;-65
2022/06/08 12:24:40;;;;;;;3.97;2.03;;;16.90;99.90;;;;;;5051437;28;20403;-64
2022/06/08 12:27:20;;;;;;;6.47;2.25;;;17.00;99.90;;;;;;5051024;28;20055;-65
2022/06/08 12:29:53;;;;;;;4.47;2.20;;;17.00;99.90;;;;;;5052730;28;20041;-65
2022/06/08 12:32:50;;;;;;;6.82;2.58;;;17.00;99.90;;;;;;5052417;28;20037;-66
2022/06/08 12:35:23;;;;;;;6.25;2.95;;;17.00;99.90;;;;;;5052220;28;20044;-64
2022/06/08 12:38:00;;;;;;;6.15;3.22;;;17.10;99.90;;;;;;5052547;28;20049;-66
2022/06/08 12:40:29;;;;;;;3.75;3.08;;;17.10;99.90;;;;;;5052705;28;20060;-64
2022/06/08 12:43:00;;;;;;;7.57;3.53;;;17.20;99.90;;;;;;5051738;28;20083;-66
2022/06/08 12:45:33;;;;;;;7.05;3.90;;;17.30;99.90;;;;;;5052409;28;20091;-66
2022/06/08 12:48:19;;;;;;;8.88;4.20;;;17.40;99.90;;;;;;5050985;28;20049;-65
2022/06/08 12:50:45;;;;;;;5.75;4.07;;;17.40;99.90;;;;;;5052540;28;20040;-64
2022/06/08 12:53:11;;;;;;;7.22;2.90;;;17.50;99.90;;;;;;5051177;28;20108;-65
2022/06/08 12:55:40;;;;;;;4.75;2.47;;;17.50;99.90;;;;;;5051103;28;20136;-66
2022/06/08 12:58:06;;;;;;;7.43;3.05;;;17.50;99.90;;;;;;5050634;28;20045;-64
2022/06/08 13:00:35;;;;;;;7.65;3.00;;;17.40;99.90;;;;;;5052278;28;20086;-65
2022/06/08 13:03:15;;;;;;;7.80;3.47;;;17.30;99.90;;;;;;5034819;28;20049;-65
2022/06/08 13:05:40;;;;;;;6.47;3.28;;;17.40;99.90;;;;;;5052276;28;20048;-66
2022/06/08 13:08:06;;;;;;;7.70;3.45;;;17.30;99.90;;;;;;5050982;28;20037;-66
2022/06/08 13:10:33;;;;;;;8.40;3.45;;;17.40;99.90;;;;;;5051304;28;20045;-64
2022/06/08 13:13:03;;;;;;;7.35;3.08;;;17.40;99.90;;;;;;5034082;28;20101;-66
2022/06/08 13:15:39;;;;;;;7.00;3.28;;;17.50;99.90;;;;;;5052378;28;20098;-64
2022/06/08 13:18:06;;;;;;;8.88;3.55;;;17.60;99.90;;;;;;5051767;28;20068;-64